Flugplatz Paderborn Lippstadt

Bericht für EDLP

vom 23.05. um 19:20 UTC

Wind 5 kt aus 150°

Sichtweite 10 km oder mehr

gute Sicht, keine Wolken < 5000 ft, keine CB, keine Wettererscheinungen (CAVOK)

Temperatur 17.0°C

Taupunkt 7.0°C

Luftfeuchtigkeit 52%

Luftdruck 1016 hPa

EDLP 231920Z 15005KT CAVOK 17/07 Q1016

Prognose für EDLP

vom 23.05. um 17:00 UTC

Zwischen 18:00 UTC und 07:00 UTC

Wind 5 kt aus 190°

Sichtweite 10 km oder mehr

keine signifikanten Wettererscheinungen

keine Wolken


Am 24.05. zwischen 07:00 und 10:00 UTC übergehend zu

Wind 6 kt aus 270°

Sichtweite 10 km oder mehr

keine signifikanten Wettererscheinungen

keine Wolken

TAF EDLP 231700Z 2318/2418 19005KT CAVOK BECMG 2407/2410 27006KT
Impressum